Weather observations for the past three days for
The Dalles Municipal Airport
Imperial (Metric)
Date Time (pdt) Wind (mph) Vis. (mi.) Weather Sky Cond. Temperature (ºF) Relative Humidity Wind Chill (°F) Heat Index (°F) Pressure Precipitation (in)
Air Dwpt 6 hour altimeter (in) sea level (mb) 1 hr 3 hr 6 hr
Max. Min.
08 02:53 Vrbl 5 10.00 Fair CLR 54 37 53% 29.98 1015.0
08 01:53 W 8 10.00 Fair CLR 59 36 42% 29.97 1014.6
08 00:53 Calm 10.00 Fair CLR 59 36 42% 29.96 1014.4
07 23:53 W 9 10.00 Fair CLR 62.1 36 38% 29.96 1014.4
07 22:53 W 12 10.00 Fair CLR 64 35.1 75.9 64 34% 29.95 1014.2
07 21:53 W 16 G 25 10.00 Fair CLR 66.9 33.1 29% 29.95 1014.1
07 20:53 NW 21 G 31 10.00 Fair and Breezy CLR 68 28.9 23% 29.93 1013.3
07 19:53 NW 25 G 38 10.00 Fair and Breezy CLR 71.1 19 14% 29.91 1012.6
07 18:53 NW 17 G 30 10.00 Fair CLR 73 19.9 13% 29.91 1012.6
07 17:53 NW 16 G 31 10.00 Fair CLR 73 23 15% 29.92 1012.9
07 16:53 NW 22 G 35 10.00 Fair and Breezy CLR 75.9 21 78.1 64.9 13% 76 29.91 1012.7
07 15:53 NW 20 G 33 10.00 Fair CLR 77 25 14% 76 29.92 1012.9
07 14:53 NW 22 G 32 10.00 Fair and Breezy CLR 77 27 16% 77 29.94 1013.6
07 13:53 NW 23 G 33 10.00 Fair and Breezy CLR 73 33.1 23% 29.95 1014.2
07 12:53 NW 22 G 33 10.00 Fair and Breezy CLR 71.1 34 26% 29.97 1014.9
07 11:53 NW 16 G 30 10.00 Fair CLR 68 39 35% 30 1015.9
07 10:53 NW 16 G 29 10.00 Fair CLR 64.9 39.9 64.9 55 40% 30 1015.9
07 09:53 NW 15 G 24 10.00 Fair CLR 63 43 48% 30.03 1016.8
07 08:53 NW 20 10.00 Fair CLR 61 43 52% 30.04 1017.1
07 07:53 NW 18 10.00 Fair CLR 59 45 60% 30.05 1017.6
07 06:53 NW 16 G 23 10.00 Fair CLR 55.9 46 70% 30.05 1017.6
07 05:53 W 9 10.00 Fair CLR 55.9 45 67% 30.04 1017.2
07 04:53 NW 18 G 28 10.00 Fair CLR 57 46 64 57 67% 30.03 1016.8
07 03:53 NW 20 G 31 10.00 Fair CLR 57.9 46.9 67% 30.01 1016.2
07 02:53 NW 14 10.00 Fair CLR 59 48 67% 30.01 1016.2
07 01:53 NW 16 G 25 10.00 Fair CLR 61 48 63% 30.01 1016.0
07 00:53 NW 16 G 31 10.00 Fair CLR 61 48.9 65% 30 1015.8
06 23:53 NW 25 G 35 10.00 Fair and Breezy CLR 62.1 50 65% 29.99 1015.4
06 22:53 W 17 G 28 10.00 Fair CLR 64 50 73 64 60% 30 1015.9
06 21:53 W 18 G 25 10.00 Fair CLR 64 51.1 63% 30.02 1016.4
06 20:53 NW 17 G 23 10.00 Fair CLR 66 48.9 54% 30 1015.8
06 19:53 NW 15 G 28 10.00 Fair CLR 70 45 41% 29.99 1015.4
06 18:53 NW 14 G 25 10.00 Fair CLR 71.1 45 39% 29.98 1015.0
06 17:53 NW 23 G 31 10.00 Fair and Breezy CLR 71.1 46.9 42% 29.98 1015.1
06 16:53 W 25 G 36 10.00 Fair and Breezy CLR 73 46 78.1 69.1 38% 29.96 1014.5
06 15:53 NW 30 G 43 10.00 Fair and Windy CLR 73.9 46 37% 29.96 1014.4
06 14:53 W 21 G 38 10.00 Fair and Breezy CLR 73.9 46 37% 29.97 1014.6
06 13:53 W 15 G 28 10.00 Fair CLR 75.9 46.9 36% 78 29.98 1015.2
06 12:53 NW 18 G 33 10.00 Fair CLR 75 48.9 40% 77 29.99 1015.3
06 11:53 NW 32 G 44 10.00 Light Rain and Windy CLR 73 50 44% 29.98 1015.0
06 10:53 NW 29 G 44 10.00 Fair and Windy CLR 70 50 71.1 61 49% 29.99 1015.3
06 09:53 NW 23 G 32 10.00 Fair and Breezy CLR 69.1 51.1 53% 29.98 1015.2
06 08:53 W 20 G 30 10.00 Fair CLR 68 50 53% 30 1015.9
06 07:53 W 9 10.00 Fair CLR 66 48.9 54% 30 1015.9
06 06:53 NW 20 G 30 10.00 Fair CLR 63 48 58% 29.99 1015.4
06 05:53 W 20 G 28 10.00 Fair CLR 62.1 48.9 62% 29.97 1014.9
06 04:53 NW 18 10.00 Fair CLR 61 48.9 63 61 65% 29.96 1014.3
06 03:53 NW 15 G 25 10.00 Fair CLR 62.1 48.9 62% 29.95 1014.2
06 02:53 NW 21 G 28 10.00 Fair and Breezy CLR 61 50 67% 29.94 1013.7
06 01:53 NW 17 G 25 10.00 Fair CLR 61 51.1 70% 29.93 1013.5
06 00:53 NW 18 G 30 10.00 Fair CLR 62.1 51.1 67% 29.92 1013.0
05 23:53 NW 22 G 32 10.00 Fair and Breezy CLR 62.1 51.1 67% 29.9 1012.3
05 22:53 NW 21 G 31 10.00 Fair and Breezy CLR 62.1 51.1 73.9 62.1 67% 29.89 1012.0
05 21:53 NW 23 G 36 10.00 Fair and Breezy CLR 63 51.1 65% 29.87 1011.5
05 20:53 NW 20 G 30 10.00 Fair CLR 64 51.1 63% 29.85 1010.6
05 19:53 NW 23 G 31 10.00 Fair and Breezy CLR 66 51.1 59% 29.82 1009.8
05 18:53 NW 20 G 29 10.00 Fair CLR 70 52 53% 29.81 1009.5
05 17:53 NW 24 G 33 10.00 Fair and Breezy CLR 72 52 50% 29.81 1009.3
05 16:53 NW 21 G 33 10.00 Fair and Breezy CLR 73.9 52 75.9 68 46% 29.81 1009.3
05 15:53 NW 22 G 31 10.00 Fair and Breezy CLR 75.9 52 43% 78 29.82 1009.7
05 14:53 NW 22 G 32 10.00 Fair and Breezy CLR 75 51.1 43% 78 29.83 1010.2
05 13:53 NW 21 G 30 10.00 Fair and Breezy CLR 75 51.1 43% 78 29.85 1010.7
05 12:53 NW 22 G 33 10.00 Fair and Breezy CLR 72 50 46% 29.86 1011.2
05 11:53 NW 21 G 31 10.00 Fair and Breezy CLR 71.1 50 47% 29.88 1011.6
05 10:53 NW 21 G 30 10.00 Fair and Breezy CLR 68 48.9 69.1 59 51% 29.88 1011.8
05 09:53 NW 22 G 33 10.00 Fair and Breezy CLR 66 50 56% 29.88 1011.8
05 08:53 NW 21 G 30 10.00 Fair and Breezy CLR 64 50 60% 29.89 1011.9
05 07:53 NW 21 G 30 10.00 Fair and Breezy CLR 61 50 67% 29.87 1011.4
05 06:53 NW 20 G 29 10.00 Fair CLR 59 50 72% 29.86 1011.0
05 05:53 NW 21 G 28 10.00 Mostly Cloudy and Breezy BKN110 60.1 50 70% 29.83 1010.2
05 04:53 NW 18 G 28 10.00 Fair CLR 61 50 69.1 61 67% 29.82 1009.8
05 03:53 NW 15 G 24 10.00 Fair CLR 61 51.1 70% 29.81 1009.4
Date Time (pdt) Wind (mph) Vis. (mi.) Weather Sky Cond. Air Dwpt Max. Min. Relative Humidity Wind Chill (°F) Heat Index (°F) altimeter (in) sea level (mb) 1 hr 3 hr 6 hr
6 hour
Temperature (ºF) Pressure Precipitation (in)